General Aviation Weather

Text Reports

Enter one or more of the following location identifiers separated by a space:

Zip Code, Four-Character ICAO or Three-Character IATA airport codes.

METAR - Aviation Routine Weather Report
KETH - Wheaton NDB, Minnesota
Updated at 6:56 AM GMT on January 29, 2015 (12:56 AM CST):
METAR KETH 290656Z AUTO 32021G28KT 10SM OVC017 M02/M04 A3009 RMK AO2
TAF - Terminal Area Forecast
KETH - Wheaton NDB, Minnesota
Updated at 6:56 AM GMT on January 29, 2015 (12:56 AM CST):
No TAF is currently available for this location.
Decoded:
No decoded TAF is available.
PIREP - Pilot Weather Report
KETH - Wheaton NDB, Minnesota
Updated at 6:56 AM GMT on January 29, 2015 (12:56 AM CST):
No PIREP is currently available for this location.
AIRMET - Airmens Meteorological Information
KETH - Wheaton NDB, Minnesota
Updated at 6:56 AM GMT on January 29, 2015 (12:56 AM CST):
No AIRMET is currently available for this location.
SIGMET - Significant Meteorological Information
KETH - Wheaton NDB, Minnesota
Updated at 6:56 AM GMT on January 29, 2015 (12:56 AM CST):
No SIGMET is currently available for this location.
NOTAM - Notice to Airmen
KETH - Wheaton NDB, Minnesota
Updated at 6:56 AM GMT on January 29, 2015 (12:56 AM CST):
No NOTAM is currently available for this location.
Forecast Area
KETH - Wheaton NDB, Minnesota
Updated at 6:56 AM GMT on January 29, 2015 (12:56 AM CST):
No NOTAM is currently available for this location.
Aviation Weather Maps